sensor_id;sensor_type;location;lat;lon;timestamp;P1;durP1;ratioP1;P2;durP2;ratioP2
47519;SDS011;33252;48.122;11.538;2022-09-09T00:01:01;3.63;;;1.33;;
47519;SDS011;33252;48.122;11.538;2022-09-09T00:03:42;1.95;;;1.10;;
47519;SDS011;33252;48.122;11.538;2022-09-09T00:06:21;2.97;;;1.20;;
47519;SDS011;33252;48.122;11.538;2022-09-09T00:11:43;3.47;;;1.33;;
47519;SDS011;33252;48.122;11.538;2022-09-09T00:20:24;2.25;;;1.38;;
47519;SDS011;33252;48.122;11.538;2022-09-09T00:23:03;3.97;;;1.20;;
47519;SDS011;33252;48.122;11.538;2022-09-09T00:25:44;1.40;;;1.08;;
47519;SDS011;33252;48.122;11.538;2022-09-09T00:28:20;2.10;;;1.30;;
47519;SDS011;33252;48.122;11.538;2022-09-09T00:30:49;3.42;;;1.35;;
47519;SDS011;33252;48.122;11.538;2022-09-09T00:33:17;1.33;;;1.05;;
47519;SDS011;33252;48.122;11.538;2022-09-09T00:35:49;3.63;;;1.30;;
47519;SDS011;33252;48.122;11.538;2022-09-09T00:38:20;2.22;;;1.25;;
47519;SDS011;33252;48.122;11.538;2022-09-09T00:49:54;4.45;;;1.23;;
47519;SDS011;33252;48.122;11.538;2022-09-09T00:52:32;1.67;;;0.85;;
47519;SDS011;33252;48.122;11.538;2022-09-09T00:55:13;3.17;;;1.20;;
47519;SDS011;33252;48.122;11.538;2022-09-09T00:57:46;2.05;;;1.38;;
47519;SDS011;33252;48.122;11.538;2022-09-09T01:02:51;4.63;;;1.50;;
47519;SDS011;33252;48.122;11.538;2022-09-09T01:08:02;2.70;;;1.60;;
47519;SDS011;33252;48.122;11.538;2022-09-09T01:10:56;4.32;;;1.20;;
47519;SDS011;33252;48.122;11.538;2022-09-09T01:13:27;4.78;;;1.80;;
47519;SDS011;33252;48.122;11.538;2022-09-09T01:15:58;2.53;;;1.33;;
47519;SDS011;33252;48.122;11.538;2022-09-09T01:18:49;5.47;;;1.70;;
47519;SDS011;33252;48.122;11.538;2022-09-09T01:26:52;4.07;;;1.88;;
47519;SDS011;33252;48.122;11.538;2022-09-09T01:29:23;5.05;;;2.33;;
47519;SDS011;33252;48.122;11.538;2022-09-09T01:34:25;6.53;;;2.60;;
47519;SDS011;33252;48.122;11.538;2022-09-09T01:37:07;5.85;;;2.17;;
47519;SDS011;33252;48.122;11.538;2022-09-09T01:39:35;5.13;;;2.30;;
47519;SDS011;33252;48.122;11.538;2022-09-09T01:42:03;5.60;;;1.80;;
47519;SDS011;33252;48.122;11.538;2022-09-09T01:44:31;3.42;;;1.80;;
47519;SDS011;33252;48.122;11.538;2022-09-09T01:46:57;2.40;;;1.20;;
47519;SDS011;33252;48.122;11.538;2022-09-09T01:49:23;2.70;;;1.75;;
47519;SDS011;33252;48.122;11.538;2022-09-09T01:51:50;4.70;;;1.50;;
47519;SDS011;33252;48.122;11.538;2022-09-09T01:54:22;2.85;;;1.15;;
47519;SDS011;33252;48.122;11.538;2022-09-09T02:10:02;1.63;;;0.90;;
47519;SDS011;33252;48.122;11.538;2022-09-09T02:12:45;2.78;;;0.90;;
47519;SDS011;33252;48.122;11.538;2022-09-09T02:15:38;3.50;;;1.20;;
47519;SDS011;33252;48.122;11.538;2022-09-09T02:18:07;2.28;;;1.00;;
47519;SDS011;33252;48.122;11.538;2022-09-09T02:20:37;2.70;;;1.20;;
47519;SDS011;33252;48.122;11.538;2022-09-09T02:23:04;5.05;;;1.98;;
47519;SDS011;33252;48.122;11.538;2022-09-09T02:25:33;3.17;;;1.00;;
47519;SDS011;33252;48.122;11.538;2022-09-09T02:28:01;3.75;;;1.52;;
47519;SDS011;33252;48.122;11.538;2022-09-09T02:30:31;2.28;;;0.90;;
47519;SDS011;33252;48.122;11.538;2022-09-09T02:32:59;1.90;;;0.82;;
47519;SDS011;33252;48.122;11.538;2022-09-09T02:35:29;2.60;;;0.93;;
47519;SDS011;33252;48.122;11.538;2022-09-09T02:37:58;2.47;;;1.15;;
47519;SDS011;33252;48.122;11.538;2022-09-09T02:40:27;2.28;;;1.15;;
47519;SDS011;33252;48.122;11.538;2022-09-09T02:42:54;2.28;;;1.20;;
47519;SDS011;33252;48.122;11.538;2022-09-09T02:45:24;2.40;;;1.02;;
47519;SDS011;33252;48.122;11.538;2022-09-09T02:51:04;2.30;;;1.20;;
47519;SDS011;33252;48.122;11.538;2022-09-09T02:56:34;0.68;;;0.68;;
47519;SDS011;33252;48.122;11.538;2022-09-09T02:59:06;1.45;;;1.00;;
47519;SDS011;33252;48.122;11.538;2022-09-09T03:01:32;3.88;;;1.00;;
47519;SDS011;33252;48.122;11.538;2022-09-09T03:03:58;2.40;;;0.90;;
47519;SDS011;33252;48.122;11.538;2022-09-09T03:06:24;2.25;;;0.90;;
47519;SDS011;33252;48.122;11.538;2022-09-09T03:08:50;2.15;;;0.70;;
47519;SDS011;33252;48.122;11.538;2022-09-09T03:11:17;2.40;;;0.90;;
47519;SDS011;33252;48.122;11.538;2022-09-09T03:13:42;1.30;;;0.65;;
47519;SDS011;33252;48.122;11.538;2022-09-09T03:16:08;1.77;;;1.20;;
47519;SDS011;33252;48.122;11.538;2022-09-09T03:18:34;1.50;;;0.80;;
47519;SDS011;33252;48.122;11.538;2022-09-09T03:21:00;2.92;;;0.80;;
47519;SDS011;33252;48.122;11.538;2022-09-09T03:23:26;1.50;;;0.77;;
47519;SDS011;33252;48.122;11.538;2022-09-09T03:25:51;1.77;;;0.68;;
47519;SDS011;33252;48.122;11.538;2022-09-09T03:28:19;2.80;;;0.90;;
47519;SDS011;33252;48.122;11.538;2022-09-09T03:30:45;1.30;;;0.80;;
47519;SDS011;33252;48.122;11.538;2022-09-09T03:33:11;2.05;;;0.80;;
47519;SDS011;33252;48.122;11.538;2022-09-09T03:35:37;4.22;;;1.23;;
47519;SDS011;33252;48.122;11.538;2022-09-09T03:38:04;1.95;;;0.80;;
47519;SDS011;33252;48.122;11.538;2022-09-09T03:40:29;1.33;;;0.90;;
47519;SDS011;33252;48.122;11.538;2022-09-09T03:42:56;4.15;;;0.80;;
47519;SDS011;33252;48.122;11.538;2022-09-09T03:45:21;2.17;;;0.70;;
47519;SDS011;33252;48.122;11.538;2022-09-09T03:47:47;1.95;;;1.02;;
47519;SDS011;33252;48.122;11.538;2022-09-09T03:50:12;3.92;;;1.23;;
47519;SDS011;33252;48.122;11.538;2022-09-09T03:52:39;2.17;;;0.88;;
47519;SDS011;33252;48.122;11.538;2022-09-09T03:55:06;3.08;;;1.02;;
47519;SDS011;33252;48.122;11.538;2022-09-09T03:57:32;2.20;;;1.20;;
47519;SDS011;33252;48.122;11.538;2022-09-09T04:00:00;2.30;;;0.82;;
47519;SDS011;33252;48.122;11.538;2022-09-09T04:02:30;2.13;;;1.00;;
47519;SDS011;33252;48.122;11.538;2022-09-09T04:04:56;1.38;;;1.08;;
47519;SDS011;33252;48.122;11.538;2022-09-09T04:07:21;1.48;;;1.00;;
47519;SDS011;33252;48.122;11.538;2022-09-09T04:09:47;2.78;;;0.80;;
47519;SDS011;33252;48.122;11.538;2022-09-09T04:12:13;2.67;;;1.05;;
47519;SDS011;33252;48.122;11.538;2022-09-09T04:14:39;2.78;;;1.30;;
47519;SDS011;33252;48.122;11.538;2022-09-09T04:17:04;2.63;;;1.00;;
47519;SDS011;33252;48.122;11.538;2022-09-09T04:19:31;3.63;;;1.30;;
47519;SDS011;33252;48.122;11.538;2022-09-09T04:21:57;2.55;;;1.02;;
47519;SDS011;33252;48.122;11.538;2022-09-09T04:24:24;1.13;;;0.90;;
47519;SDS011;33252;48.122;11.538;2022-09-09T04:26:51;1.42;;;0.93;;
47519;SDS011;33252;48.122;11.538;2022-09-09T04:29:17;1.52;;;1.23;;
47519;SDS011;33252;48.122;11.538;2022-09-09T04:31:43;1.40;;;0.93;;
47519;SDS011;33252;48.122;11.538;2022-09-09T04:34:09;1.48;;;0.90;;
47519;SDS011;33252;48.122;11.538;2022-09-09T04:36:35;3.85;;;0.98;;
47519;SDS011;33252;48.122;11.538;2022-09-09T04:39:01;2.97;;;0.80;;
47519;SDS011;33252;48.122;11.538;2022-09-09T04:41:27;2.22;;;0.90;;
47519;SDS011;33252;48.122;11.538;2022-09-09T04:43:53;1.75;;;0.88;;
47519;SDS011;33252;48.122;11.538;2022-09-09T04:46:20;1.42;;;1.00;;
47519;SDS011;33252;48.122;11.538;2022-09-09T04:48:48;4.82;;;1.10;;
47519;SDS011;33252;48.122;11.538;2022-09-09T04:51:14;5.25;;;1.30;;
47519;SDS011;33252;48.122;11.538;2022-09-09T04:53:40;2.33;;;1.42;;
47519;SDS011;33252;48.122;11.538;2022-09-09T04:58:35;3.75;;;1.17;;
47519;SDS011;33252;48.122;11.538;2022-09-09T05:01:19;5.30;;;1.30;;
47519;SDS011;33252;48.122;11.538;2022-09-09T05:03:46;2.25;;;1.55;;
47519;SDS011;33252;48.122;11.538;2022-09-09T05:06:17;3.28;;;1.15;;
47519;SDS011;33252;48.122;11.538;2022-09-09T05:08:44;2.28;;;0.98;;
47519;SDS011;33252;48.122;11.538;2022-09-09T05:13:49;2.65;;;1.35;;
47519;SDS011;33252;48.122;11.538;2022-09-09T05:16:16;2.45;;;1.00;;
47519;SDS011;33252;48.122;11.538;2022-09-09T05:18:42;1.85;;;0.85;;
47519;SDS011;33252;48.122;11.538;2022-09-09T05:21:08;2.25;;;1.00;;
47519;SDS011;33252;48.122;11.538;2022-09-09T05:23:35;2.97;;;1.55;;
47519;SDS011;33252;48.122;11.538;2022-09-09T05:26:02;3.15;;;1.42;;
47519;SDS011;33252;48.122;11.538;2022-09-09T05:28:28;1.70;;;1.10;;
47519;SDS011;33252;48.122;11.538;2022-09-09T05:30:56;2.03;;;1.20;;
47519;SDS011;33252;48.122;11.538;2022-09-09T05:33:25;3.35;;;1.10;;
47519;SDS011;33252;48.122;11.538;2022-09-09T05:35:58;2.67;;;0.90;;
47519;SDS011;33252;48.122;11.538;2022-09-09T05:38:26;2.30;;;0.70;;
47519;SDS011;33252;48.122;11.538;2022-09-09T05:40:53;5.05;;;0.80;;
47519;SDS011;33252;48.122;11.538;2022-09-09T05:43:19;1.35;;;0.95;;
47519;SDS011;33252;48.122;11.538;2022-09-09T05:45:48;2.33;;;0.77;;
47519;SDS011;33252;48.122;11.538;2022-09-09T05:48:23;2.40;;;0.95;;
47519;SDS011;33252;48.122;11.538;2022-09-09T05:50:52;4.57;;;1.20;;
47519;SDS011;33252;48.122;11.538;2022-09-09T05:53:19;1.63;;;0.90;;
47519;SDS011;33252;48.122;11.538;2022-09-09T05:55:45;2.67;;;0.80;;
47519;SDS011;33252;48.122;11.538;2022-09-09T05:58:11;1.30;;;0.88;;
47519;SDS011;33252;48.122;11.538;2022-09-09T06:00:36;5.15;;;0.90;;
47519;SDS011;33252;48.122;11.538;2022-09-09T06:03:02;2.30;;;1.00;;
47519;SDS011;33252;48.122;11.538;2022-09-09T06:05:28;2.55;;;0.80;;
47519;SDS011;33252;48.122;11.538;2022-09-09T06:07:55;5.57;;;2.08;;
47519;SDS011;33252;48.122;11.538;2022-09-09T06:10:21;1.77;;;0.80;;
47519;SDS011;33252;48.122;11.538;2022-09-09T06:12:47;1.35;;;0.63;;
47519;SDS011;33252;48.122;11.538;2022-09-09T06:15:12;4.93;;;1.25;;
47519;SDS011;33252;48.122;11.538;2022-09-09T06:17:38;4.00;;;1.05;;
47519;SDS011;33252;48.122;11.538;2022-09-09T06:20:04;3.15;;;0.82;;
47519;SDS011;33252;48.122;11.538;2022-09-09T06:22:30;1.90;;;0.70;;
47519;SDS011;33252;48.122;11.538;2022-09-09T06:24:56;2.65;;;0.75;;
47519;SDS011;33252;48.122;11.538;2022-09-09T06:27:21;2.13;;;0.65;;
47519;SDS011;33252;48.122;11.538;2022-09-09T06:29:47;1.00;;;0.45;;
47519;SDS011;33252;48.122;11.538;2022-09-09T06:32:13;4.72;;;1.15;;
47519;SDS011;33252;48.122;11.538;2022-09-09T06:34:39;5.10;;;0.55;;
47519;SDS011;33252;48.122;11.538;2022-09-09T06:37:05;1.80;;;0.90;;
47519;SDS011;33252;48.122;11.538;2022-09-09T06:39:31;2.33;;;0.65;;
47519;SDS011;33252;48.122;11.538;2022-09-09T06:41:57;2.72;;;1.05;;
47519;SDS011;33252;48.122;11.538;2022-09-09T06:44:23;1.00;;;0.55;;
47519;SDS011;33252;48.122;11.538;2022-09-09T06:46:51;0.93;;;0.43;;
47519;SDS011;33252;48.122;11.538;2022-09-09T06:49:17;2.65;;;0.80;;
47519;SDS011;33252;48.122;11.538;2022-09-09T06:51:43;3.80;;;0.77;;
47519;SDS011;33252;48.122;11.538;2022-09-09T06:54:09;4.55;;;1.08;;
47519;SDS011;33252;48.122;11.538;2022-09-09T06:56:40;2.78;;;1.17;;
47519;SDS011;33252;48.122;11.538;2022-09-09T06:59:08;1.52;;;0.80;;
47519;SDS011;33252;48.122;11.538;2022-09-09T07:01:35;3.20;;;0.73;;
47519;SDS011;33252;48.122;11.538;2022-09-09T07:04:03;1.48;;;0.50;;
47519;SDS011;33252;48.122;11.538;2022-09-09T07:06:33;3.67;;;0.80;;
47519;SDS011;33252;48.122;11.538;2022-09-09T07:09:00;3.10;;;0.73;;
47519;SDS011;33252;48.122;11.538;2022-09-09T07:11:29;1.08;;;0.45;;
47519;SDS011;33252;48.122;11.538;2022-09-09T07:13:57;1.90;;;0.75;;
47519;SDS011;33252;48.122;11.538;2022-09-09T07:16:24;2.10;;;0.68;;
47519;SDS011;33252;48.122;11.538;2022-09-09T07:18:52;1.15;;;0.45;;
47519;SDS011;33252;48.122;11.538;2022-09-09T07:21:23;2.55;;;0.95;;
47519;SDS011;33252;48.122;11.538;2022-09-09T07:23:51;1.15;;;0.70;;
47519;SDS011;33252;48.122;11.538;2022-09-09T07:26:18;2.38;;;0.55;;
47519;SDS011;33252;48.122;11.538;2022-09-09T07:28:45;1.73;;;0.63;;
47519;SDS011;33252;48.122;11.538;2022-09-09T07:31:16;2.22;;;0.68;;
47519;SDS011;33252;48.122;11.538;2022-09-09T07:33:50;1.52;;;0.90;;
47519;SDS011;33252;48.122;11.538;2022-09-09T07:38:49;4.50;;;0.90;;
47519;SDS011;33252;48.122;11.538;2022-09-09T07:41:18;2.50;;;0.57;;
47519;SDS011;33252;48.122;11.538;2022-09-09T07:43:47;1.50;;;0.70;;
47519;SDS011;33252;48.122;11.538;2022-09-09T07:46:15;3.33;;;0.85;;
47519;SDS011;33252;48.122;11.538;2022-09-09T07:48:48;2.38;;;0.75;;
47519;SDS011;33252;48.122;11.538;2022-09-09T07:51:16;1.40;;;0.60;;
47519;SDS011;33252;48.122;11.538;2022-09-09T07:53:44;1.00;;;0.63;;
47519;SDS011;33252;48.122;11.538;2022-09-09T07:56:12;1.15;;;0.57;;
47519;SDS011;33252;48.122;11.538;2022-09-09T07:58:42;1.52;;;0.70;;
47519;SDS011;33252;48.122;11.538;2022-09-09T08:01:11;1.27;;;0.80;;
47519;SDS011;33252;48.122;11.538;2022-09-09T08:03:39;2.83;;;0.77;;
47519;SDS011;33252;48.122;11.538;2022-09-09T08:06:06;1.65;;;0.60;;
47519;SDS011;33252;48.122;11.538;2022-09-09T08:08:34;1.95;;;0.68;;
47519;SDS011;33252;48.122;11.538;2022-09-09T08:11:08;1.13;;;0.80;;
47519;SDS011;33252;48.122;11.538;2022-09-09T08:13:38;3.78;;;0.65;;
47519;SDS011;33252;48.122;11.538;2022-09-09T08:16:08;1.35;;;0.60;;
47519;SDS011;33252;48.122;11.538;2022-09-09T08:18:36;3.67;;;1.10;;
47519;SDS011;33252;48.122;11.538;2022-09-09T08:21:12;3.38;;;0.90;;
47519;SDS011;33252;48.122;11.538;2022-09-09T08:23:42;3.25;;;0.65;;
47519;SDS011;33252;48.122;11.538;2022-09-09T08:28:40;2.05;;;0.60;;
47519;SDS011;33252;48.122;11.538;2022-09-09T08:33:40;4.38;;;0.73;;
47519;SDS011;33252;48.122;11.538;2022-09-09T08:36:06;1.58;;;0.60;;
47519;SDS011;33252;48.122;11.538;2022-09-09T08:38:35;4.20;;;1.02;;
47519;SDS011;33252;48.122;11.538;2022-09-09T08:41:04;2.92;;;1.08;;
47519;SDS011;33252;48.122;11.538;2022-09-09T08:44:04;2.28;;;0.93;;
47519;SDS011;33252;48.122;11.538;2022-09-09T08:46:46;4.70;;;0.70;;
47519;SDS011;33252;48.122;11.538;2022-09-09T08:49:20;1.55;;;0.80;;
47519;SDS011;33252;48.122;11.538;2022-09-09T08:52:22;2.47;;;0.60;;
47519;SDS011;33252;48.122;11.538;2022-09-09T08:54:48;3.70;;;0.85;;
47519;SDS011;33252;48.122;11.538;2022-09-09T08:57:20;2.08;;;0.60;;
47519;SDS011;33252;48.122;11.538;2022-09-09T08:59:51;3.00;;;0.80;;
47519;SDS011;33252;48.122;11.538;2022-09-09T09:02:27;2.42;;;0.88;;
47519;SDS011;33252;48.122;11.538;2022-09-09T09:05:23;2.45;;;1.17;;
47519;SDS011;33252;48.122;11.538;2022-09-09T09:08:46;4.38;;;0.93;;
47519;SDS011;33252;48.122;11.538;2022-09-09T09:11:37;3.30;;;1.70;;
47519;SDS011;33252;48.122;11.538;2022-09-09T09:16:39;4.57;;;1.38;;
47519;SDS011;33252;48.122;11.538;2022-09-09T09:19:17;1.35;;;0.60;;
47519;SDS011;33252;48.122;11.538;2022-09-09T09:24:27;2.88;;;0.77;;
47519;SDS011;33252;48.122;11.538;2022-09-09T09:27:08;3.30;;;1.15;;
47519;SDS011;33252;48.122;11.538;2022-09-09T09:29:38;2.53;;;1.08;;
47519;SDS011;33252;48.122;11.538;2022-09-09T09:32:07;4.30;;;0.93;;
47519;SDS011;33252;48.122;11.538;2022-09-09T09:34:38;1.60;;;0.80;;
47519;SDS011;33252;48.122;11.538;2022-09-09T09:37:12;2.03;;;0.80;;
47519;SDS011;33252;48.122;11.538;2022-09-09T09:39:44;4.03;;;0.90;;
47519;SDS011;33252;48.122;11.538;2022-09-09T09:42:14;1.60;;;0.93;;
47519;SDS011;33252;48.122;11.538;2022-09-09T09:44:42;2.58;;;0.90;;
47519;SDS011;33252;48.122;11.538;2022-09-09T09:47:15;1.77;;;0.90;;
47519;SDS011;33252;48.122;11.538;2022-09-09T09:52:28;1.90;;;1.20;;
47519;SDS011;33252;48.122;11.538;2022-09-09T09:54:55;2.72;;;1.00;;
47519;SDS011;33252;48.122;11.538;2022-09-09T09:57:25;2.40;;;0.85;;
47519;SDS011;33252;48.122;11.538;2022-09-09T10:00:00;3.45;;;1.20;;
47519;SDS011;33252;48.122;11.538;2022-09-09T10:02:42;2.10;;;0.80;;
47519;SDS011;33252;48.122;11.538;2022-09-09T10:08:05;1.30;;;0.70;;
47519;SDS011;33252;48.122;11.538;2022-09-09T10:13:40;3.80;;;1.33;;
47519;SDS011;33252;48.122;11.538;2022-09-09T10:19:05;2.80;;;1.00;;
47519;SDS011;33252;48.122;11.538;2022-09-09T10:27:19;2.78;;;0.65;;
47519;SDS011;33252;48.122;11.538;2022-09-09T10:32:41;4.32;;;0.75;;
47519;SDS011;33252;48.122;11.538;2022-09-09T10:35:29;3.25;;;0.70;;
47519;SDS011;33252;48.122;11.538;2022-09-09T10:51:50;3.15;;;0.63;;
47519;SDS011;33252;48.122;11.538;2022-09-09T10:54:27;1.77;;;0.68;;
47519;SDS011;33252;48.122;11.538;2022-09-09T10:56:57;0.68;;;0.57;;
47519;SDS011;33252;48.122;11.538;2022-09-09T11:02:00;3.13;;;0.70;;
47519;SDS011;33252;48.122;11.538;2022-09-09T11:04:42;2.45;;;0.60;;
47519;SDS011;33252;48.122;11.538;2022-09-09T11:07:17;3.00;;;0.40;;
47519;SDS011;33252;48.122;11.538;2022-09-09T11:13:15;2.20;;;0.98;;
47519;SDS011;33252;48.122;11.538;2022-09-09T11:16:05;0.93;;;0.40;;
47519;SDS011;33252;48.122;11.538;2022-09-09T11:18:44;0.95;;;0.57;;
47519;SDS011;33252;48.122;11.538;2022-09-09T11:21:28;1.75;;;0.80;;
47519;SDS011;33252;48.122;11.538;2022-09-09T11:24:03;1.77;;;0.63;;
47519;SDS011;33252;48.122;11.538;2022-09-09T11:42:34;1.33;;;0.20;;
47519;SDS011;33252;48.122;11.538;2022-09-09T11:47:55;1.10;;;0.30;;
47519;SDS011;33252;48.122;11.538;2022-09-09T11:52:48;1.23;;;0.40;;
47519;SDS011;33252;48.122;11.538;2022-09-09T11:58:03;1.52;;;0.40;;
47519;SDS011;33252;48.122;11.538;2022-09-09T12:00:35;0.32;;;0.20;;
47519;SDS011;33252;48.122;11.538;2022-09-09T12:06:26;2.03;;;0.30;;
47519;SDS011;33252;48.122;11.538;2022-09-09T12:09:05;1.73;;;0.22;;
47519;SDS011;33252;48.122;11.538;2022-09-09T12:11:37;1.58;;;0.22;;
47519;SDS011;33252;48.122;11.538;2022-09-09T12:14:03;2.10;;;0.35;;
47519;SDS011;33252;48.122;11.538;2022-09-09T12:19:14;1.23;;;0.63;;
47519;SDS011;33252;48.122;11.538;2022-09-09T12:24:21;1.08;;;0.20;;
47519;SDS011;33252;48.122;11.538;2022-09-09T12:27:07;1.58;;;0.30;;
47519;SDS011;33252;48.122;11.538;2022-09-09T12:29:49;1.65;;;0.30;;
47519;SDS011;33252;48.122;11.538;2022-09-09T12:32:39;1.67;;;0.30;;
47519;SDS011;33252;48.122;11.538;2022-09-09T12:35:13;1.13;;;0.30;;
47519;SDS011;33252;48.122;11.538;2022-09-09T12:37:53;1.25;;;0.20;;
47519;SDS011;33252;48.122;11.538;2022-09-09T12:40:24;2.92;;;0.63;;
47519;SDS011;33252;48.122;11.538;2022-09-09T12:42:52;0.85;;;0.28;;
47519;SDS011;33252;48.122;11.538;2022-09-09T12:47:55;0.57;;;0.28;;
47519;SDS011;33252;48.122;11.538;2022-09-09T12:51:04;1.77;;;0.30;;
47519;SDS011;33252;48.122;11.538;2022-09-09T12:53:24;0.70;;;0.28;;
47519;SDS011;33252;48.122;11.538;2022-09-09T12:58:24;1.48;;;0.40;;
47519;SDS011;33252;48.122;11.538;2022-09-09T13:00:53;0.85;;;0.40;;
47519;SDS011;33252;48.122;11.538;2022-09-09T13:03:22;0.93;;;0.32;;
47519;SDS011;33252;48.122;11.538;2022-09-09T13:05:49;1.30;;;0.40;;
47519;SDS011;33252;48.122;11.538;2022-09-09T13:08:16;0.43;;;0.20;;
47519;SDS011;33252;48.122;11.538;2022-09-09T13:10:59;1.08;;;0.43;;
47519;SDS011;33252;48.122;11.538;2022-09-09T13:13:34;2.30;;;0.50;;
47519;SDS011;33252;48.122;11.538;2022-09-09T13:16:02;2.67;;;0.30;;
47519;SDS011;33252;48.122;11.538;2022-09-09T13:18:31;0.52;;;0.50;;
47519;SDS011;33252;48.122;11.538;2022-09-09T13:20:59;3.05;;;0.47;;
47519;SDS011;33252;48.122;11.538;2022-09-09T13:23:32;1.02;;;0.30;;
47519;SDS011;33252;48.122;11.538;2022-09-09T13:26:04;1.23;;;0.40;;
47519;SDS011;33252;48.122;11.538;2022-09-09T13:31:21;0.80;;;0.30;;
47519;SDS011;33252;48.122;11.538;2022-09-09T13:36:37;1.17;;;0.20;;
47519;SDS011;33252;48.122;11.538;2022-09-09T13:39:13;2.22;;;0.28;;
47519;SDS011;33252;48.122;11.538;2022-09-09T13:41:43;0.75;;;0.30;;
47519;SDS011;33252;48.122;11.538;2022-09-09T13:47:38;1.77;;;0.45;;
47519;SDS011;33252;48.122;11.538;2022-09-09T13:49:57;1.35;;;0.30;;
47519;SDS011;33252;48.122;11.538;2022-09-09T13:52:23;3.40;;;0.30;;
47519;SDS011;33252;48.122;11.538;2022-09-09T13:54:49;2.92;;;0.30;;
47519;SDS011;33252;48.122;11.538;2022-09-09T13:57:17;0.55;;;0.20;;
47519;SDS011;33252;48.122;11.538;2022-09-09T13:59:45;1.67;;;0.30;;
47519;SDS011;33252;48.122;11.538;2022-09-09T14:02:11;1.23;;;0.35;;
47519;SDS011;33252;48.122;11.538;2022-09-09T14:04:37;1.73;;;0.30;;
47519;SDS011;33252;48.122;11.538;2022-09-09T14:07:06;0.90;;;0.50;;
47519;SDS011;33252;48.122;11.538;2022-09-09T14:09:38;0.60;;;0.30;;
47519;SDS011;33252;48.122;11.538;2022-09-09T14:12:04;1.33;;;0.57;;
47519;SDS011;33252;48.122;11.538;2022-09-09T14:14:30;2.15;;;0.38;;
47519;SDS011;33252;48.122;11.538;2022-09-09T14:16:56;1.08;;;0.30;;
47519;SDS011;33252;48.122;11.538;2022-09-09T14:19:22;0.52;;;0.32;;
47519;SDS011;33252;48.122;11.538;2022-09-09T14:21:47;1.55;;;0.52;;
47519;SDS011;33252;48.122;11.538;2022-09-09T14:24:13;0.95;;;0.43;;
47519;SDS011;33252;48.122;11.538;2022-09-09T14:26:39;0.57;;;0.32;;
47519;SDS011;33252;48.122;11.538;2022-09-09T14:29:05;0.52;;;0.30;;
47519;SDS011;33252;48.122;11.538;2022-09-09T14:31:32;0.85;;;0.30;;
47519;SDS011;33252;48.122;11.538;2022-09-09T14:33:58;2.53;;;0.38;;
47519;SDS011;33252;48.122;11.538;2022-09-09T14:36:24;4.03;;;0.32;;
47519;SDS011;33252;48.122;11.538;2022-09-09T14:38:49;1.40;;;0.30;;
47519;SDS011;33252;48.122;11.538;2022-09-09T14:41:16;3.30;;;0.55;;
47519;SDS011;33252;48.122;11.538;2022-09-09T14:43:43;2.72;;;0.30;;
47519;SDS011;33252;48.122;11.538;2022-09-09T14:46:11;3.42;;;0.40;;
47519;SDS011;33252;48.122;11.538;2022-09-09T14:48:39;1.35;;;0.40;;
47519;SDS011;33252;48.122;11.538;2022-09-09T14:53:35;0.88;;;0.30;;
47519;SDS011;33252;48.122;11.538;2022-09-09T14:56:20;2.05;;;0.63;;
47519;SDS011;33252;48.122;11.538;2022-09-09T14:58:48;1.92;;;0.47;;
47519;SDS011;33252;48.122;11.538;2022-09-09T15:01:15;2.88;;;0.63;;
47519;SDS011;33252;48.122;11.538;2022-09-09T15:03:42;0.90;;;0.60;;
47519;SDS011;33252;48.122;11.538;2022-09-09T15:06:13;2.92;;;0.52;;
47519;SDS011;33252;48.122;11.538;2022-09-09T15:08:43;0.60;;;0.40;;
47519;SDS011;33252;48.122;11.538;2022-09-09T15:11:10;2.25;;;0.60;;
47519;SDS011;33252;48.122;11.538;2022-09-09T15:13:38;5.38;;;0.90;;
47519;SDS011;33252;48.122;11.538;2022-09-09T15:16:09;1.73;;;0.50;;
47519;SDS011;33252;48.122;11.538;2022-09-09T15:18:40;1.88;;;0.40;;
47519;SDS011;33252;48.122;11.538;2022-09-09T15:21:26;2.35;;;0.40;;
47519;SDS011;33252;48.122;11.538;2022-09-09T15:23:54;2.00;;;0.80;;
47519;SDS011;33252;48.122;11.538;2022-09-09T15:26:21;1.55;;;0.47;;
47519;SDS011;33252;48.122;11.538;2022-09-09T15:28:47;1.10;;;0.40;;
47519;SDS011;33252;48.122;11.538;2022-09-09T15:31:15;1.67;;;0.40;;
47519;SDS011;33252;48.122;11.538;2022-09-09T15:33:49;3.28;;;0.40;;
47519;SDS011;33252;48.122;11.538;2022-09-09T15:36:25;0.85;;;0.30;;
47519;SDS011;33252;48.122;11.538;2022-09-09T15:38:53;1.20;;;0.40;;
47519;SDS011;33252;48.122;11.538;2022-09-09T15:41:20;3.67;;;0.40;;
47519;SDS011;33252;48.122;11.538;2022-09-09T15:43:47;0.50;;;0.20;;
47519;SDS011;33252;48.122;11.538;2022-09-09T15:46:22;9.07;;;0.68;;
47519;SDS011;33252;48.122;11.538;2022-09-09T15:48:53;2.75;;;0.25;;
47519;SDS011;33252;48.122;11.538;2022-09-09T15:51:20;1.95;;;0.60;;
47519;SDS011;33252;48.122;11.538;2022-09-09T15:53:46;1.60;;;0.20;;
47519;SDS011;33252;48.122;11.538;2022-09-09T15:56:12;1.42;;;0.40;;
47519;SDS011;33252;48.122;11.538;2022-09-09T15:58:38;1.98;;;0.40;;
47519;SDS011;33252;48.122;11.538;2022-09-09T16:01:04;1.40;;;0.52;;
47519;SDS011;33252;48.122;11.538;2022-09-09T16:03:35;1.88;;;0.52;;
47519;SDS011;33252;48.122;11.538;2022-09-09T16:06:07;3.17;;;0.50;;
47519;SDS011;33252;48.122;11.538;2022-09-09T16:08:35;2.35;;;0.47;;
47519;SDS011;33252;48.122;11.538;2022-09-09T16:11:12;2.03;;;0.47;;
47519;SDS011;33252;48.122;11.538;2022-09-09T16:13:40;2.45;;;0.55;;
47519;SDS011;33252;48.122;11.538;2022-09-09T16:16:08;4.85;;;0.80;;
47519;SDS011;33252;48.122;11.538;2022-09-09T16:18:36;2.45;;;0.52;;
47519;SDS011;33252;48.122;11.538;2022-09-09T16:21:06;2.65;;;0.40;;
47519;SDS011;33252;48.122;11.538;2022-09-09T16:23:33;0.93;;;0.30;;
47519;SDS011;33252;48.122;11.538;2022-09-09T16:26:00;1.48;;;0.63;;
47519;SDS011;33252;48.122;11.538;2022-09-09T16:28:27;0.77;;;0.30;;
47519;SDS011;33252;48.122;11.538;2022-09-09T16:30:53;1.60;;;0.60;;
47519;SDS011;33252;48.122;11.538;2022-09-09T16:33:19;1.58;;;0.60;;
47519;SDS011;33252;48.122;11.538;2022-09-09T16:35:44;1.38;;;0.30;;
47519;SDS011;33252;48.122;11.538;2022-09-09T16:38:10;2.80;;;0.60;;
47519;SDS011;33252;48.122;11.538;2022-09-09T16:40:37;1.25;;;0.30;;
47519;SDS011;33252;48.122;11.538;2022-09-09T16:43:05;0.90;;;0.40;;
47519;SDS011;33252;48.122;11.538;2022-09-09T16:45:32;0.93;;;0.38;;
47519;SDS011;33252;48.122;11.538;2022-09-09T16:47:58;2.50;;;0.50;;
47519;SDS011;33252;48.122;11.538;2022-09-09T16:50:25;1.33;;;0.40;;
47519;SDS011;33252;48.122;11.538;2022-09-09T16:52:51;0.73;;;0.30;;
47519;SDS011;33252;48.122;11.538;2022-09-09T16:55:17;1.63;;;0.30;;
47519;SDS011;33252;48.122;11.538;2022-09-09T16:57:45;1.38;;;0.43;;
47519;SDS011;33252;48.122;11.538;2022-09-09T17:00:14;1.60;;;0.35;;
47519;SDS011;33252;48.122;11.538;2022-09-09T17:02:41;1.00;;;0.40;;
47519;SDS011;33252;48.122;11.538;2022-09-09T17:05:08;3.08;;;0.60;;
47519;SDS011;33252;48.122;11.538;2022-09-09T17:07:34;0.88;;;0.40;;
47519;SDS011;33252;48.122;11.538;2022-09-09T17:10:00;1.45;;;0.40;;
47519;SDS011;33252;48.122;11.538;2022-09-09T17:12:26;0.98;;;0.55;;
47519;SDS011;33252;48.122;11.538;2022-09-09T17:14:52;1.83;;;0.55;;
47519;SDS011;33252;48.122;11.538;2022-09-09T17:17:20;4.00;;;0.57;;
47519;SDS011;33252;48.122;11.538;2022-09-09T17:19:46;3.22;;;0.50;;
47519;SDS011;33252;48.122;11.538;2022-09-09T17:22:12;1.33;;;0.50;;
47519;SDS011;33252;48.122;11.538;2022-09-09T17:24:37;1.63;;;0.50;;
47519;SDS011;33252;48.122;11.538;2022-09-09T17:27:03;1.10;;;0.50;;